sensor_id;sensor_type;location;lat;lon;timestamp;P1;durP1;ratioP1;P2;durP2;ratioP2
45114;SDS011;30877;43.706;10.780;2024-03-08T00:00:40;5.43;;;2.83;;
45114;SDS011;30877;43.706;10.780;2024-03-08T00:03:10;7.00;;;3.45;;
45114;SDS011;30877;43.706;10.780;2024-03-08T00:05:40;7.43;;;3.15;;
45114;SDS011;30877;43.706;10.780;2024-03-08T00:08:08;6.70;;;3.47;;
45114;SDS011;30877;43.706;10.780;2024-03-08T00:10:37;7.47;;;3.30;;
45114;SDS011;30877;43.706;10.780;2024-03-08T00:13:08;4.53;;;3.20;;
45114;SDS011;30877;43.706;10.780;2024-03-08T00:15:38;5.32;;;3.53;;
45114;SDS011;30877;43.706;10.780;2024-03-08T00:18:07;5.78;;;3.83;;
45114;SDS011;30877;43.706;10.780;2024-03-08T00:20:35;4.80;;;3.08;;
45114;SDS011;30877;43.706;10.780;2024-03-08T00:23:04;6.50;;;3.70;;
45114;SDS011;30877;43.706;10.780;2024-03-08T00:25:34;7.63;;;4.32;;
45114;SDS011;30877;43.706;10.780;2024-03-08T00:28:03;7.78;;;4.30;;
45114;SDS011;30877;43.706;10.780;2024-03-08T00:30:35;7.35;;;3.78;;
45114;SDS011;30877;43.706;10.780;2024-03-08T00:33:05;8.77;;;4.65;;
45114;SDS011;30877;43.706;10.780;2024-03-08T00:35:33;6.53;;;4.57;;
45114;SDS011;30877;43.706;10.780;2024-03-08T00:38:02;5.65;;;3.65;;
45114;SDS011;30877;43.706;10.780;2024-03-08T00:40:31;5.93;;;3.80;;
45114;SDS011;30877;43.706;10.780;2024-03-08T00:42:59;7.80;;;4.07;;
45114;SDS011;30877;43.706;10.780;2024-03-08T00:45:27;8.27;;;4.13;;
45114;SDS011;30877;43.706;10.780;2024-03-08T00:47:59;5.82;;;3.22;;
45114;SDS011;30877;43.706;10.780;2024-03-08T00:50:28;8.93;;;3.95;;
45114;SDS011;30877;43.706;10.780;2024-03-08T00:52:56;5.93;;;3.60;;
45114;SDS011;30877;43.706;10.780;2024-03-08T00:55:25;5.00;;;3.58;;
45114;SDS011;30877;43.706;10.780;2024-03-08T00:57:54;6.55;;;3.20;;
45114;SDS011;30877;43.706;10.780;2024-03-08T01:00:24;5.20;;;3.25;;
45114;SDS011;30877;43.706;10.780;2024-03-08T01:02:53;7.32;;;3.70;;
45114;SDS011;30877;43.706;10.780;2024-03-08T01:05:24;8.18;;;4.03;;
45114;SDS011;30877;43.706;10.780;2024-03-08T01:07:53;5.22;;;3.15;;
45114;SDS011;30877;43.706;10.780;2024-03-08T01:10:22;5.05;;;3.22;;
45114;SDS011;30877;43.706;10.780;2024-03-08T01:12:51;5.93;;;3.40;;
45114;SDS011;30877;43.706;10.780;2024-03-08T01:15:19;7.55;;;3.53;;
45114;SDS011;30877;43.706;10.780;2024-03-08T01:17:48;5.78;;;3.97;;
45114;SDS011;30877;43.706;10.780;2024-03-08T01:20:19;5.68;;;3.70;;
45114;SDS011;30877;43.706;10.780;2024-03-08T01:22:49;6.45;;;4.20;;
45114;SDS011;30877;43.706;10.780;2024-03-08T01:25:18;7.30;;;4.25;;
45114;SDS011;30877;43.706;10.780;2024-03-08T01:27:47;5.78;;;3.47;;
45114;SDS011;30877;43.706;10.780;2024-03-08T01:30:16;5.97;;;3.65;;
45114;SDS011;30877;43.706;10.780;2024-03-08T01:32:45;5.25;;;2.92;;
45114;SDS011;30877;43.706;10.780;2024-03-08T01:35:16;5.25;;;3.45;;
45114;SDS011;30877;43.706;10.780;2024-03-08T01:37:45;7.28;;;3.30;;
45114;SDS011;30877;43.706;10.780;2024-03-08T01:40:17;5.70;;;3.47;;
45114;SDS011;30877;43.706;10.780;2024-03-08T01:42:46;5.93;;;3.25;;
45114;SDS011;30877;43.706;10.780;2024-03-08T01:45:15;7.30;;;4.15;;
45114;SDS011;30877;43.706;10.780;2024-03-08T01:47:43;5.45;;;3.00;;
45114;SDS011;30877;43.706;10.780;2024-03-08T01:50:12;6.32;;;3.58;;
45114;SDS011;30877;43.706;10.780;2024-03-08T01:52:41;6.10;;;3.53;;
45114;SDS011;30877;43.706;10.780;2024-03-08T01:55:11;6.22;;;3.55;;
45114;SDS011;30877;43.706;10.780;2024-03-08T01:57:44;5.13;;;3.33;;
45114;SDS011;30877;43.706;10.780;2024-03-08T02:00:16;8.07;;;3.72;;
45114;SDS011;30877;43.706;10.780;2024-03-08T02:02:46;6.80;;;3.30;;
45114;SDS011;30877;43.706;10.780;2024-03-08T02:05:17;7.40;;;3.75;;
45114;SDS011;30877;43.706;10.780;2024-03-08T02:07:48;5.03;;;3.67;;
45114;SDS011;30877;43.706;10.780;2024-03-08T02:10:17;5.03;;;3.38;;
45114;SDS011;30877;43.706;10.780;2024-03-08T02:12:47;5.47;;;3.47;;
45114;SDS011;30877;43.706;10.780;2024-03-08T02:15:17;5.15;;;2.97;;
45114;SDS011;30877;43.706;10.780;2024-03-08T02:17:45;5.13;;;3.03;;
45114;SDS011;30877;43.706;10.780;2024-03-08T02:20:17;5.57;;;2.95;;
45114;SDS011;30877;43.706;10.780;2024-03-08T02:22:48;4.72;;;2.42;;
45114;SDS011;30877;43.706;10.780;2024-03-08T02:25:18;4.30;;;2.45;;
45114;SDS011;30877;43.706;10.780;2024-03-08T02:27:47;3.42;;;1.80;;
45114;SDS011;30877;43.706;10.780;2024-03-08T02:30:15;4.15;;;2.22;;
45114;SDS011;30877;43.706;10.780;2024-03-08T02:32:46;2.95;;;2.00;;
45114;SDS011;30877;43.706;10.780;2024-03-08T02:35:15;4.90;;;2.45;;
45114;SDS011;30877;43.706;10.780;2024-03-08T02:37:43;4.43;;;2.10;;
45114;SDS011;30877;43.706;10.780;2024-03-08T02:40:18;6.13;;;2.40;;
45114;SDS011;30877;43.706;10.780;2024-03-08T02:42:47;3.65;;;2.20;;
45114;SDS011;30877;43.706;10.780;2024-03-08T02:45:16;3.92;;;2.03;;
45114;SDS011;30877;43.706;10.780;2024-03-08T02:47:45;7.10;;;2.83;;
45114;SDS011;30877;43.706;10.780;2024-03-08T02:50:16;2.65;;;1.60;;
45114;SDS011;30877;43.706;10.780;2024-03-08T02:52:46;4.70;;;2.05;;
45114;SDS011;30877;43.706;10.780;2024-03-08T02:55:15;3.92;;;1.98;;
45114;SDS011;30877;43.706;10.780;2024-03-08T02:57:47;3.80;;;1.80;;
45114;SDS011;30877;43.706;10.780;2024-03-08T03:00:17;2.95;;;1.60;;
45114;SDS011;30877;43.706;10.780;2024-03-08T03:02:46;3.75;;;1.70;;
45114;SDS011;30877;43.706;10.780;2024-03-08T03:05:17;3.60;;;2.05;;
45114;SDS011;30877;43.706;10.780;2024-03-08T03:07:46;4.45;;;2.05;;
45114;SDS011;30877;43.706;10.780;2024-03-08T03:10:20;3.55;;;1.90;;
45114;SDS011;30877;43.706;10.780;2024-03-08T03:12:49;4.57;;;2.97;;
45114;SDS011;30877;43.706;10.780;2024-03-08T03:15:19;5.90;;;2.50;;
45114;SDS011;30877;43.706;10.780;2024-03-08T03:17:48;2.70;;;1.92;;
45114;SDS011;30877;43.706;10.780;2024-03-08T03:20:21;5.32;;;2.28;;
45114;SDS011;30877;43.706;10.780;2024-03-08T03:22:54;4.07;;;2.30;;
45114;SDS011;30877;43.706;10.780;2024-03-08T03:25:26;2.95;;;2.28;;
45114;SDS011;30877;43.706;10.780;2024-03-08T03:28:00;4.30;;;2.03;;
45114;SDS011;30877;43.706;10.780;2024-03-08T03:30:29;4.03;;;2.30;;
45114;SDS011;30877;43.706;10.780;2024-03-08T03:33:01;4.50;;;2.00;;
45114;SDS011;30877;43.706;10.780;2024-03-08T03:35:35;2.80;;;2.00;;
45114;SDS011;30877;43.706;10.780;2024-03-08T03:38:06;3.75;;;2.72;;
45114;SDS011;30877;43.706;10.780;2024-03-08T03:40:39;5.13;;;2.60;;
45114;SDS011;30877;43.706;10.780;2024-03-08T03:43:09;3.58;;;2.17;;
45114;SDS011;30877;43.706;10.780;2024-03-08T03:45:39;3.03;;;2.08;;
45114;SDS011;30877;43.706;10.780;2024-03-08T03:48:09;4.22;;;1.88;;
45114;SDS011;30877;43.706;10.780;2024-03-08T03:50:39;3.85;;;2.08;;
45114;SDS011;30877;43.706;10.780;2024-03-08T03:53:09;6.18;;;2.33;;
45114;SDS011;30877;43.706;10.780;2024-03-08T03:55:39;6.40;;;3.00;;
45114;SDS011;30877;43.706;10.780;2024-03-08T03:58:09;5.93;;;2.35;;
45114;SDS011;30877;43.706;10.780;2024-03-08T04:00:40;3.65;;;2.50;;
45114;SDS011;30877;43.706;10.780;2024-03-08T04:03:10;3.05;;;2.08;;
45114;SDS011;30877;43.706;10.780;2024-03-08T04:05:39;5.75;;;2.42;;
45114;SDS011;30877;43.706;10.780;2024-03-08T04:08:09;4.93;;;2.35;;
45114;SDS011;30877;43.706;10.780;2024-03-08T04:10:39;4.68;;;2.55;;
45114;SDS011;30877;43.706;10.780;2024-03-08T04:13:09;3.70;;;2.35;;
45114;SDS011;30877;43.706;10.780;2024-03-08T04:15:39;3.42;;;1.92;;
45114;SDS011;30877;43.706;10.780;2024-03-08T04:18:09;4.60;;;2.42;;
45114;SDS011;30877;43.706;10.780;2024-03-08T04:20:40;4.65;;;2.78;;
45114;SDS011;30877;43.706;10.780;2024-03-08T04:23:11;3.13;;;1.80;;
45114;SDS011;30877;43.706;10.780;2024-03-08T04:25:41;4.00;;;2.00;;
45114;SDS011;30877;43.706;10.780;2024-03-08T04:28:09;4.25;;;2.13;;
45114;SDS011;30877;43.706;10.780;2024-03-08T04:30:42;3.20;;;2.10;;
45114;SDS011;30877;43.706;10.780;2024-03-08T04:33:13;3.17;;;1.90;;
45114;SDS011;30877;43.706;10.780;2024-03-08T04:35:43;4.35;;;2.42;;
45114;SDS011;30877;43.706;10.780;2024-03-08T04:38:13;4.65;;;2.35;;
45114;SDS011;30877;43.706;10.780;2024-03-08T04:40:44;6.75;;;2.00;;
45114;SDS011;30877;43.706;10.780;2024-03-08T04:43:12;6.13;;;2.45;;
45114;SDS011;30877;43.706;10.780;2024-03-08T04:45:41;3.53;;;2.22;;
45114;SDS011;30877;43.706;10.780;2024-03-08T04:48:12;4.82;;;2.42;;
45114;SDS011;30877;43.706;10.780;2024-03-08T04:50:41;4.25;;;2.22;;
45114;SDS011;30877;43.706;10.780;2024-03-08T04:53:11;3.08;;;2.15;;
45114;SDS011;30877;43.706;10.780;2024-03-08T04:55:39;5.85;;;2.70;;
45114;SDS011;30877;43.706;10.780;2024-03-08T04:58:11;4.05;;;2.08;;
45114;SDS011;30877;43.706;10.780;2024-03-08T05:00:39;4.00;;;2.35;;
45114;SDS011;30877;43.706;10.780;2024-03-08T05:03:10;3.25;;;2.30;;
45114;SDS011;30877;43.706;10.780;2024-03-08T05:05:40;4.00;;;2.60;;
45114;SDS011;30877;43.706;10.780;2024-03-08T05:08:10;5.28;;;2.63;;
45114;SDS011;30877;43.706;10.780;2024-03-08T05:10:40;5.18;;;2.30;;
45114;SDS011;30877;43.706;10.780;2024-03-08T05:13:08;5.80;;;2.85;;
45114;SDS011;30877;43.706;10.780;2024-03-08T05:15:40;5.25;;;2.60;;
45114;SDS011;30877;43.706;10.780;2024-03-08T05:18:09;4.28;;;2.95;;
45114;SDS011;30877;43.706;10.780;2024-03-08T05:20:39;3.85;;;2.72;;
45114;SDS011;30877;43.706;10.780;2024-03-08T05:23:09;5.70;;;2.67;;
45114;SDS011;30877;43.706;10.780;2024-03-08T05:25:37;5.57;;;2.70;;
45114;SDS011;30877;43.706;10.780;2024-03-08T05:28:06;6.72;;;3.13;;
45114;SDS011;30877;43.706;10.780;2024-03-08T05:30:39;4.95;;;2.75;;
45114;SDS011;30877;43.706;10.780;2024-03-08T05:33:08;5.25;;;2.88;;
45114;SDS011;30877;43.706;10.780;2024-03-08T05:35:38;5.75;;;2.90;;
45114;SDS011;30877;43.706;10.780;2024-03-08T05:38:07;5.68;;;2.65;;
45114;SDS011;30877;43.706;10.780;2024-03-08T05:40:36;5.20;;;2.85;;
45114;SDS011;30877;43.706;10.780;2024-03-08T05:43:03;4.80;;;2.97;;
45114;SDS011;30877;43.706;10.780;2024-03-08T05:45:32;5.38;;;2.80;;
45114;SDS011;30877;43.706;10.780;2024-03-08T05:48:04;6.07;;;2.28;;
45114;SDS011;30877;43.706;10.780;2024-03-08T05:50:35;3.97;;;2.50;;
45114;SDS011;30877;43.706;10.780;2024-03-08T05:53:05;4.60;;;3.03;;
45114;SDS011;30877;43.706;10.780;2024-03-08T05:55:36;9.13;;;2.97;;
45114;SDS011;30877;43.706;10.780;2024-03-08T05:58:06;4.43;;;3.17;;
45114;SDS011;30877;43.706;10.780;2024-03-08T06:00:37;5.88;;;2.65;;
45114;SDS011;30877;43.706;10.780;2024-03-08T06:03:08;4.35;;;2.60;;
45114;SDS011;30877;43.706;10.780;2024-03-08T06:05:40;5.50;;;2.80;;
45114;SDS011;30877;43.706;10.780;2024-03-08T06:08:10;6.75;;;2.70;;
45114;SDS011;30877;43.706;10.780;2024-03-08T06:10:38;5.55;;;2.67;;
45114;SDS011;30877;43.706;10.780;2024-03-08T06:13:07;5.50;;;2.53;;
45114;SDS011;30877;43.706;10.780;2024-03-08T06:15:37;7.47;;;3.10;;
45114;SDS011;30877;43.706;10.780;2024-03-08T06:18:05;5.35;;;3.17;;
45114;SDS011;30877;43.706;10.780;2024-03-08T06:20:37;3.85;;;2.53;;
45114;SDS011;30877;43.706;10.780;2024-03-08T06:23:07;7.40;;;2.83;;
45114;SDS011;30877;43.706;10.780;2024-03-08T06:25:36;4.72;;;2.53;;
45114;SDS011;30877;43.706;10.780;2024-03-08T06:28:05;5.82;;;2.70;;
45114;SDS011;30877;43.706;10.780;2024-03-08T06:30:35;4.57;;;2.72;;
45114;SDS011;30877;43.706;10.780;2024-03-08T06:33:04;4.28;;;2.53;;
45114;SDS011;30877;43.706;10.780;2024-03-08T06:35:32;5.05;;;2.60;;
45114;SDS011;30877;43.706;10.780;2024-03-08T06:38:06;4.03;;;2.67;;
45114;SDS011;30877;43.706;10.780;2024-03-08T06:40:34;6.13;;;3.10;;
45114;SDS011;30877;43.706;10.780;2024-03-08T06:43:03;5.25;;;2.80;;
45114;SDS011;30877;43.706;10.780;2024-03-08T06:45:35;5.07;;;2.70;;
45114;SDS011;30877;43.706;10.780;2024-03-08T06:48:06;5.30;;;2.85;;
45114;SDS011;30877;43.706;10.780;2024-03-08T06:50:39;6.45;;;3.30;;
45114;SDS011;30877;43.706;10.780;2024-03-08T06:53:10;6.07;;;3.47;;
45114;SDS011;30877;43.706;10.780;2024-03-08T06:55:39;6.07;;;3.60;;
45114;SDS011;30877;43.706;10.780;2024-03-08T06:58:08;4.97;;;3.38;;
45114;SDS011;30877;43.706;10.780;2024-03-08T07:00:39;5.93;;;4.35;;
45114;SDS011;30877;43.706;10.780;2024-03-08T07:03:11;7.57;;;4.13;;
45114;SDS011;30877;43.706;10.780;2024-03-08T07:05:44;5.65;;;3.67;;
45114;SDS011;30877;43.706;10.780;2024-03-08T07:08:15;5.57;;;3.75;;
45114;SDS011;30877;43.706;10.780;2024-03-08T07:10:45;5.85;;;3.85;;
45114;SDS011;30877;43.706;10.780;2024-03-08T07:13:13;4.18;;;3.22;;
45114;SDS011;30877;43.706;10.780;2024-03-08T07:15:42;5.93;;;3.65;;
45114;SDS011;30877;43.706;10.780;2024-03-08T07:18:12;8.05;;;3.85;;
45114;SDS011;30877;43.706;10.780;2024-03-08T07:20:42;6.53;;;3.97;;
45114;SDS011;30877;43.706;10.780;2024-03-08T07:23:12;7.18;;;3.53;;
45114;SDS011;30877;43.706;10.780;2024-03-08T07:26:05;4.65;;;3.72;;
45114;SDS011;30877;43.706;10.780;2024-03-08T07:28:35;8.65;;;4.05;;
45114;SDS011;30877;43.706;10.780;2024-03-08T07:31:03;8.38;;;4.50;;
45114;SDS011;30877;43.706;10.780;2024-03-08T07:36:18;7.90;;;4.90;;
45114;SDS011;30877;43.706;10.780;2024-03-08T07:38:52;9.15;;;4.53;;
45114;SDS011;30877;43.706;10.780;2024-03-08T07:41:21;7.47;;;4.65;;
45114;SDS011;30877;43.706;10.780;2024-03-08T07:43:50;8.85;;;6.47;;
45114;SDS011;30877;43.706;10.780;2024-03-08T07:46:21;9.48;;;6.68;;
45114;SDS011;30877;43.706;10.780;2024-03-08T07:48:50;8.43;;;5.85;;
45114;SDS011;30877;43.706;10.780;2024-03-08T07:51:19;9.70;;;6.95;;
45114;SDS011;30877;43.706;10.780;2024-03-08T07:53:48;9.75;;;6.95;;
45114;SDS011;30877;43.706;10.780;2024-03-08T07:56:18;12.45;;;7.18;;
45114;SDS011;30877;43.706;10.780;2024-03-08T07:58:49;8.27;;;6.25;;
45114;SDS011;30877;43.706;10.780;2024-03-08T08:01:18;9.25;;;6.47;;
45114;SDS011;30877;43.706;10.780;2024-03-08T08:03:47;6.82;;;5.60;;
45114;SDS011;30877;43.706;10.780;2024-03-08T08:06:18;11.32;;;6.55;;
45114;SDS011;30877;43.706;10.780;2024-03-08T08:08:47;10.10;;;6.78;;
45114;SDS011;30877;43.706;10.780;2024-03-08T08:11:19;9.50;;;7.20;;
45114;SDS011;30877;43.706;10.780;2024-03-08T08:13:48;8.75;;;5.78;;
45114;SDS011;30877;43.706;10.780;2024-03-08T08:16:16;7.78;;;5.85;;
45114;SDS011;30877;43.706;10.780;2024-03-08T08:18:45;8.45;;;5.75;;
45114;SDS011;30877;43.706;10.780;2024-03-08T08:21:15;8.35;;;5.70;;
45114;SDS011;30877;43.706;10.780;2024-03-08T08:23:45;10.77;;;5.93;;
45114;SDS011;30877;43.706;10.780;2024-03-08T08:26:14;8.95;;;5.68;;
45114;SDS011;30877;43.706;10.780;2024-03-08T08:28:47;8.30;;;5.45;;
45114;SDS011;30877;43.706;10.780;2024-03-08T08:31:15;8.15;;;6.35;;
45114;SDS011;30877;43.706;10.780;2024-03-08T08:33:43;8.32;;;5.50;;
45114;SDS011;30877;43.706;10.780;2024-03-08T08:36:15;7.22;;;5.28;;
45114;SDS011;30877;43.706;10.780;2024-03-08T08:38:44;8.80;;;5.75;;
45114;SDS011;30877;43.706;10.780;2024-03-08T08:41:14;9.38;;;5.72;;
45114;SDS011;30877;43.706;10.780;2024-03-08T08:43:44;9.13;;;5.43;;
45114;SDS011;30877;43.706;10.780;2024-03-08T08:46:30;10.50;;;5.75;;
45114;SDS011;30877;43.706;10.780;2024-03-08T08:49:03;9.00;;;5.50;;
45114;SDS011;30877;43.706;10.780;2024-03-08T08:51:33;9.55;;;5.78;;
45114;SDS011;30877;43.706;10.780;2024-03-08T08:54:03;9.35;;;5.25;;
45114;SDS011;30877;43.706;10.780;2024-03-08T08:56:37;6.93;;;5.00;;
45114;SDS011;30877;43.706;10.780;2024-03-08T08:59:08;8.38;;;5.80;;
45114;SDS011;30877;43.706;10.780;2024-03-08T09:01:39;7.30;;;4.95;;
45114;SDS011;30877;43.706;10.780;2024-03-08T09:04:07;6.75;;;4.80;;
45114;SDS011;30877;43.706;10.780;2024-03-08T09:06:39;9.18;;;5.55;;
45114;SDS011;30877;43.706;10.780;2024-03-08T09:09:12;8.45;;;4.88;;
45114;SDS011;30877;43.706;10.780;2024-03-08T09:11:41;8.85;;;5.57;;
45114;SDS011;30877;43.706;10.780;2024-03-08T09:14:13;8.70;;;5.35;;
45114;SDS011;30877;43.706;10.780;2024-03-08T09:16:47;8.23;;;5.25;;
45114;SDS011;30877;43.706;10.780;2024-03-08T09:19:16;7.05;;;4.95;;
45114;SDS011;30877;43.706;10.780;2024-03-08T09:21:45;9.75;;;5.35;;
45114;SDS011;30877;43.706;10.780;2024-03-08T09:24:15;7.15;;;5.20;;
45114;SDS011;30877;43.706;10.780;2024-03-08T09:26:45;10.55;;;5.57;;
45114;SDS011;30877;43.706;10.780;2024-03-08T09:29:14;10.88;;;6.07;;
45114;SDS011;30877;43.706;10.780;2024-03-08T09:31:43;8.48;;;5.30;;
45114;SDS011;30877;43.706;10.780;2024-03-08T09:34:16;7.88;;;5.72;;
45114;SDS011;30877;43.706;10.780;2024-03-08T09:36:52;6.28;;;5.32;;
45114;SDS011;30877;43.706;10.780;2024-03-08T09:39:22;9.32;;;6.05;;
45114;SDS011;30877;43.706;10.780;2024-03-08T09:41:55;9.07;;;5.68;;
45114;SDS011;30877;43.706;10.780;2024-03-08T09:44:24;7.00;;;5.05;;
45114;SDS011;30877;43.706;10.780;2024-03-08T09:46:55;10.07;;;5.72;;
45114;SDS011;30877;43.706;10.780;2024-03-08T09:49:26;8.73;;;5.70;;
45114;SDS011;30877;43.706;10.780;2024-03-08T09:51:55;9.07;;;6.10;;
45114;SDS011;30877;43.706;10.780;2024-03-08T09:54:25;8.85;;;5.55;;
45114;SDS011;30877;43.706;10.780;2024-03-08T09:56:54;6.68;;;5.05;;
45114;SDS011;30877;43.706;10.780;2024-03-08T09:59:23;8.32;;;5.97;;
45114;SDS011;30877;43.706;10.780;2024-03-08T10:01:54;8.23;;;5.32;;
45114;SDS011;30877;43.706;10.780;2024-03-08T10:04:29;7.55;;;4.80;;
45114;SDS011;30877;43.706;10.780;2024-03-08T10:07:01;6.80;;;5.28;;
45114;SDS011;30877;43.706;10.780;2024-03-08T10:09:31;9.90;;;5.40;;
45114;SDS011;30877;43.706;10.780;2024-03-08T10:12:00;10.10;;;5.72;;
45114;SDS011;30877;43.706;10.780;2024-03-08T10:14:30;7.80;;;5.10;;
45114;SDS011;30877;43.706;10.780;2024-03-08T10:16:59;5.90;;;4.43;;
45114;SDS011;30877;43.706;10.780;2024-03-08T10:19:29;6.68;;;4.95;;
45114;SDS011;30877;43.706;10.780;2024-03-08T10:21:59;9.15;;;5.43;;
45114;SDS011;30877;43.706;10.780;2024-03-08T10:24:27;7.35;;;4.90;;
45114;SDS011;30877;43.706;10.780;2024-03-08T10:26:58;8.30;;;4.50;;
45114;SDS011;30877;43.706;10.780;2024-03-08T10:29:27;6.82;;;5.18;;
45114;SDS011;30877;43.706;10.780;2024-03-08T10:31:58;7.57;;;5.10;;
45114;SDS011;30877;43.706;10.780;2024-03-08T10:34:29;10.25;;;6.32;;
45114;SDS011;30877;43.706;10.780;2024-03-08T10:36:58;10.75;;;7.53;;
45114;SDS011;30877;43.706;10.780;2024-03-08T10:39:33;12.40;;;7.45;;
45114;SDS011;30877;43.706;10.780;2024-03-08T10:42:04;14.07;;;8.57;;
45114;SDS011;30877;43.706;10.780;2024-03-08T10:44:40;18.90;;;10.93;;
45114;SDS011;30877;43.706;10.780;2024-03-08T10:47:18;17.08;;;9.45;;
45114;SDS011;30877;43.706;10.780;2024-03-08T10:50:03;14.30;;;9.10;;
45114;SDS011;30877;43.706;10.780;2024-03-08T10:52:40;12.93;;;7.45;;
45114;SDS011;30877;43.706;10.780;2024-03-08T10:55:11;14.40;;;6.97;;
45114;SDS011;30877;43.706;10.780;2024-03-08T10:57:41;9.43;;;5.40;;
45114;SDS011;30877;43.706;10.780;2024-03-08T11:00:10;6.95;;;4.97;;
45114;SDS011;30877;43.706;10.780;2024-03-08T11:02:43;5.43;;;3.30;;
45114;SDS011;30877;43.706;10.780;2024-03-08T11:05:21;6.10;;;4.03;;
45114;SDS011;30877;43.706;10.780;2024-03-08T11:08:06;5.68;;;3.58;;
45114;SDS011;30877;43.706;10.780;2024-03-08T11:10:49;7.13;;;4.10;;
45114;SDS011;30877;43.706;10.780;2024-03-08T11:13:33;6.55;;;4.00;;
45114;SDS011;30877;43.706;10.780;2024-03-08T11:16:07;5.22;;;3.67;;
45114;SDS011;30877;43.706;10.780;2024-03-08T11:18:38;5.88;;;3.40;;
45114;SDS011;30877;43.706;10.780;2024-03-08T11:21:09;6.15;;;2.75;;
45114;SDS011;30877;43.706;10.780;2024-03-08T11:23:41;5.15;;;2.92;;
45114;SDS011;30877;43.706;10.780;2024-03-08T11:26:17;5.00;;;2.90;;
45114;SDS011;30877;43.706;10.780;2024-03-08T11:28:47;4.82;;;2.60;;
45114;SDS011;30877;43.706;10.780;2024-03-08T11:31:22;5.30;;;2.88;;
45114;SDS011;30877;43.706;10.780;2024-03-08T11:33:55;4.18;;;2.90;;
45114;SDS011;30877;43.706;10.780;2024-03-08T11:36:26;4.13;;;2.35;;
45114;SDS011;30877;43.706;10.780;2024-03-08T11:38:57;3.92;;;2.90;;
45114;SDS011;30877;43.706;10.780;2024-03-08T11:41:31;5.50;;;3.35;;
45114;SDS011;30877;43.706;10.780;2024-03-08T11:44:02;4.65;;;2.92;;
45114;SDS011;30877;43.706;10.780;2024-03-08T11:46:37;3.72;;;2.65;;
45114;SDS011;30877;43.706;10.780;2024-03-08T11:49:10;3.90;;;2.78;;
45114;SDS011;30877;43.706;10.780;2024-03-08T11:51:44;5.28;;;3.05;;
45114;SDS011;30877;43.706;10.780;2024-03-08T11:54:13;3.88;;;2.67;;
45114;SDS011;30877;43.706;10.780;2024-03-08T11:56:43;4.00;;;2.40;;
45114;SDS011;30877;43.706;10.780;2024-03-08T11:59:17;4.50;;;2.90;;
45114;SDS011;30877;43.706;10.780;2024-03-08T12:01:57;7.43;;;2.67;;
45114;SDS011;30877;43.706;10.780;2024-03-08T12:04:28;3.15;;;2.10;;
45114;SDS011;30877;43.706;10.780;2024-03-08T12:07:12;3.20;;;1.90;;
45114;SDS011;30877;43.706;10.780;2024-03-08T12:09:43;3.10;;;2.25;;
45114;SDS011;30877;43.706;10.780;2024-03-08T12:12:16;3.88;;;2.13;;
45114;SDS011;30877;43.706;10.780;2024-03-08T12:14:45;3.78;;;2.15;;
45114;SDS011;30877;43.706;10.780;2024-03-08T12:17:13;3.08;;;1.63;;
45114;SDS011;30877;43.706;10.780;2024-03-08T12:19:46;2.85;;;1.90;;
45114;SDS011;30877;43.706;10.780;2024-03-08T12:22:22;3.75;;;2.22;;
45114;SDS011;30877;43.706;10.780;2024-03-08T12:25:05;4.13;;;2.20;;
45114;SDS011;30877;43.706;10.780;2024-03-08T12:27:37;3.65;;;2.03;;
45114;SDS011;30877;43.706;10.780;2024-03-08T12:30:15;3.90;;;2.47;;
45114;SDS011;30877;43.706;10.780;2024-03-08T12:32:47;2.78;;;1.85;;
45114;SDS011;30877;43.706;10.780;2024-03-08T12:35:20;4.05;;;1.95;;
45114;SDS011;30877;43.706;10.780;2024-03-08T12:37:52;2.75;;;1.55;;
45114;SDS011;30877;43.706;10.780;2024-03-08T12:40:25;4.40;;;2.10;;
45114;SDS011;30877;43.706;10.780;2024-03-08T12:42:57;3.83;;;1.90;;
45114;SDS011;30877;43.706;10.780;2024-03-08T12:45:27;4.80;;;1.63;;
45114;SDS011;30877;43.706;10.780;2024-03-08T12:47:56;3.38;;;1.85;;
45114;SDS011;30877;43.706;10.780;2024-03-08T12:50:27;3.65;;;1.70;;
45114;SDS011;30877;43.706;10.780;2024-03-08T12:53:00;4.00;;;1.45;;
45114;SDS011;30877;43.706;10.780;2024-03-08T12:55:31;3.00;;;1.92;;
45114;SDS011;30877;43.706;10.780;2024-03-08T12:58:04;3.92;;;1.92;;
45114;SDS011;30877;43.706;10.780;2024-03-08T13:00:35;2.40;;;1.60;;
45114;SDS011;30877;43.706;10.780;2024-03-08T13:03:10;2.45;;;1.50;;
45114;SDS011;30877;43.706;10.780;2024-03-08T13:05:40;2.47;;;1.63;;
45114;SDS011;30877;43.706;10.780;2024-03-08T13:08:13;2.30;;;1.63;;
45114;SDS011;30877;43.706;10.780;2024-03-08T13:10:42;2.58;;;1.50;;
45114;SDS011;30877;43.706;10.780;2024-03-08T13:13:12;2.88;;;1.48;;
45114;SDS011;30877;43.706;10.780;2024-03-08T13:15:44;2.72;;;1.40;;
45114;SDS011;30877;43.706;10.780;2024-03-08T13:18:13;3.95;;;1.40;;
45114;SDS011;30877;43.706;10.780;2024-03-08T13:20:46;2.08;;;1.27;;
45114;SDS011;30877;43.706;10.780;2024-03-08T13:23:23;2.83;;;1.50;;
45114;SDS011;30877;43.706;10.780;2024-03-08T13:25:51;5.55;;;1.73;;
45114;SDS011;30877;43.706;10.780;2024-03-08T13:28:21;2.63;;;1.52;;
45114;SDS011;30877;43.706;10.780;2024-03-08T13:30:55;2.53;;;1.35;;
45114;SDS011;30877;43.706;10.780;2024-03-08T13:33:30;3.65;;;1.73;;
45114;SDS011;30877;43.706;10.780;2024-03-08T13:35:59;3.05;;;1.90;;
45114;SDS011;30877;43.706;10.780;2024-03-08T13:38:34;2.00;;;1.20;;
45114;SDS011;30877;43.706;10.780;2024-03-08T13:41:05;2.72;;;1.30;;
45114;SDS011;30877;43.706;10.780;2024-03-08T13:43:33;5.40;;;2.13;;
45114;SDS011;30877;43.706;10.780;2024-03-08T13:46:04;3.25;;;1.00;;
45114;SDS011;30877;43.706;10.780;2024-03-08T13:48:34;1.55;;;0.60;;
45114;SDS011;30877;43.706;10.780;2024-03-08T13:51:04;3.35;;;0.85;;
45114;SDS011;30877;43.706;10.780;2024-03-08T13:53:35;1.70;;;0.77;;
45114;SDS011;30877;43.706;10.780;2024-03-08T13:56:03;1.95;;;0.82;;
45114;SDS011;30877;43.706;10.780;2024-03-08T13:58:33;2.13;;;0.60;;
45114;SDS011;30877;43.706;10.780;2024-03-08T14:01:03;1.83;;;0.98;;
45114;SDS011;30877;43.706;10.780;2024-03-08T14:03:34;2.28;;;0.90;;
45114;SDS011;30877;43.706;10.780;2024-03-08T14:06:07;1.25;;;0.52;;
45114;SDS011;30877;43.706;10.780;2024-03-08T14:08:49;2.95;;;0.70;;
45114;SDS011;30877;43.706;10.780;2024-03-08T14:11:20;4.15;;;1.00;;
45114;SDS011;30877;43.706;10.780;2024-03-08T14:13:54;2.45;;;1.02;;
45114;SDS011;30877;43.706;10.780;2024-03-08T14:16:23;2.13;;;0.77;;
45114;SDS011;30877;43.706;10.780;2024-03-08T14:18:52;2.05;;;0.80;;
45114;SDS011;30877;43.706;10.780;2024-03-08T14:21:20;1.95;;;1.27;;
45114;SDS011;30877;43.706;10.780;2024-03-08T14:23:51;2.03;;;0.95;;
45114;SDS011;30877;43.706;10.780;2024-03-08T14:26:20;2.88;;;0.90;;
45114;SDS011;30877;43.706;10.780;2024-03-08T14:28:50;1.70;;;1.10;;
45114;SDS011;30877;43.706;10.780;2024-03-08T14:31:23;3.67;;;1.35;;
45114;SDS011;30877;43.706;10.780;2024-03-08T14:33:54;2.95;;;1.38;;
45114;SDS011;30877;43.706;10.780;2024-03-08T14:36:26;2.85;;;1.45;;
45114;SDS011;30877;43.706;10.780;2024-03-08T14:39:01;2.55;;;1.10;;
45114;SDS011;30877;43.706;10.780;2024-03-08T14:41:31;3.67;;;1.10;;
45114;SDS011;30877;43.706;10.780;2024-03-08T14:44:01;2.42;;;1.10;;
45114;SDS011;30877;43.706;10.780;2024-03-08T14:46:30;1.75;;;0.85;;
45114;SDS011;30877;43.706;10.780;2024-03-08T14:48:59;2.63;;;0.85;;
45114;SDS011;30877;43.706;10.780;2024-03-08T14:51:28;3.85;;;1.40;;
45114;SDS011;30877;43.706;10.780;2024-03-08T14:53:58;5.18;;;2.10;;
45114;SDS011;30877;43.706;10.780;2024-03-08T14:56:30;3.90;;;2.38;;